Artas, South Dakota
Current Conditions -  °F | °C
As of 6:52 AM on Saturday 25 Oct 2014 (Local Time) from KMBG Reporting Station
Clear Clear  
Wind Chill: 39°   Ceiling: Unl
Heat Index: 39°   Visibility: 10mi
Dew Point: 33°   Wind: 3mph
Humidity: 79%   Direction: 350°N
Pressure: 30.11"   Gusts: NA
Location:  45.7737°N, 99.5895°W
Report Text: KMBG 251152Z AUTO 35003KT 10SM CLR 04/01 A3011 RMK AO2 SLP201 T00390006 10139 20039 53009
Loading
Personal Weather Stations






























Interactive Weather Map
Tropical Storm Tracking
New forecast layout! Learn more

10-Day Weather Forecast

Advertisements
Track Severe Weather on mobile